Palisade, Nebraska
Current Conditions -  °F | °C
As of 7:53 AM on Wednesday 26 Nov 2014 (Local Time) from KIML Reporting Station
Overcast Overcast  
Wind Chill: 19°   Ceiling: 9500
Heat Index: 31°   Visibility: 10mi
Dew Point: 18°   Wind: 18mph
Humidity: 59%   Direction: 330°NNW
Pressure: 30.19"   Gusts: NA
Location:  40.35°N, 101.11°W
Report Text: KIML 261353Z AUTO 33016KT 10SM OVC095 M01/M08 A3019 RMK AO2 PK WND 35027/1330 SLP245 T10061078
Loading
Personal Weather Stations






























Interactive Weather Map New forecast layout! Learn more

10-Day Weather Forecast

Advertisements
Track Severe Weather on mobile